sensor_id;sensor_type;location;lat;lon;timestamp;P1;durP1;ratioP1;P2;durP2;ratioP2
20861;SDS011;10591;52.532;13.348;2023-08-30T00:00:37;7.62;;;5.45;;
20861;SDS011;10591;52.532;13.348;2023-08-30T00:03:08;9.38;;;5.80;;
20861;SDS011;10591;52.532;13.348;2023-08-30T00:05:41;7.78;;;5.17;;
20861;SDS011;10591;52.532;13.348;2023-08-30T00:08:11;7.17;;;5.00;;
20861;SDS011;10591;52.532;13.348;2023-08-30T00:10:44;7.83;;;5.20;;
20861;SDS011;10591;52.532;13.348;2023-08-30T00:13:15;7.28;;;4.75;;
20861;SDS011;10591;52.532;13.348;2023-08-30T00:15:46;7.20;;;4.87;;
20861;SDS011;10591;52.532;13.348;2023-08-30T00:18:16;6.95;;;4.75;;
20861;SDS011;10591;52.532;13.348;2023-08-30T00:20:50;6.55;;;4.65;;
20861;SDS011;10591;52.532;13.348;2023-08-30T00:23:23;9.38;;;5.55;;
20861;SDS011;10591;52.532;13.348;2023-08-30T00:25:54;8.35;;;5.17;;
20861;SDS011;10591;52.532;13.348;2023-08-30T00:28:24;8.98;;;5.75;;
20861;SDS011;10591;52.532;13.348;2023-08-30T00:30:55;7.05;;;5.00;;
20861;SDS011;10591;52.532;13.348;2023-08-30T00:33:26;10.25;;;5.83;;
20861;SDS011;10591;52.532;13.348;2023-08-30T00:36:02;7.22;;;4.92;;
20861;SDS011;10591;52.532;13.348;2023-08-30T00:38:29;6.47;;;4.78;;
20861;SDS011;10591;52.532;13.348;2023-08-30T00:41:01;7.85;;;4.58;;
20861;SDS011;10591;52.532;13.348;2023-08-30T00:43:31;7.40;;;5.17;;
20861;SDS011;10591;52.532;13.348;2023-08-30T00:46:02;8.50;;;5.47;;
20861;SDS011;10591;52.532;13.348;2023-08-30T00:48:33;15.43;;;9.28;;
20861;SDS011;10591;52.532;13.348;2023-08-30T00:51:04;12.10;;;7.80;;
20861;SDS011;10591;52.532;13.348;2023-08-30T00:53:36;8.73;;;6.30;;
20861;SDS011;10591;52.532;13.348;2023-08-30T00:56:07;9.40;;;5.65;;
20861;SDS011;10591;52.532;13.348;2023-08-30T00:58:37;8.05;;;5.30;;
20861;SDS011;10591;52.532;13.348;2023-08-30T01:01:12;8.25;;;5.42;;
20861;SDS011;10591;52.532;13.348;2023-08-30T01:03:43;11.33;;;6.03;;
20861;SDS011;10591;52.532;13.348;2023-08-30T01:06:15;15.25;;;6.50;;
20861;SDS011;10591;52.532;13.348;2023-08-30T01:08:46;12.23;;;5.90;;
20861;SDS011;10591;52.532;13.348;2023-08-30T01:14:13;13.03;;;6.22;;
20861;SDS011;10591;52.532;13.348;2023-08-30T01:16:48;11.30;;;6.12;;
20861;SDS011;10591;52.532;13.348;2023-08-30T01:27:48;12.20;;;6.35;;
20861;SDS011;10591;52.532;13.348;2023-08-30T01:30:23;12.20;;;5.65;;
20861;SDS011;10591;52.532;13.348;2023-08-30T01:32:56;13.03;;;6.20;;
20861;SDS011;10591;52.532;13.348;2023-08-30T01:35:28;11.63;;;6.17;;
20861;SDS011;10591;52.532;13.348;2023-08-30T01:38:02;10.60;;;5.75;;
20861;SDS011;10591;52.532;13.348;2023-08-30T01:40:35;12.07;;;6.37;;
20861;SDS011;10591;52.532;13.348;2023-08-30T01:43:08;12.88;;;5.78;;
20861;SDS011;10591;52.532;13.348;2023-08-30T01:45:44;14.53;;;6.37;;
20861;SDS011;10591;52.532;13.348;2023-08-30T01:48:15;14.50;;;6.53;;
20861;SDS011;10591;52.532;13.348;2023-08-30T01:50:47;13.60;;;6.03;;
20861;SDS011;10591;52.532;13.348;2023-08-30T01:53:19;14.95;;;6.05;;
20861;SDS011;10591;52.532;13.348;2023-08-30T01:55:51;12.88;;;6.62;;
20861;SDS011;10591;52.532;13.348;2023-08-30T01:58:24;16.30;;;6.72;;
20861;SDS011;10591;52.532;13.348;2023-08-30T02:00:54;11.28;;;5.30;;
20861;SDS011;10591;52.532;13.348;2023-08-30T02:03:27;13.65;;;6.45;;
20861;SDS011;10591;52.532;13.348;2023-08-30T02:06:00;12.37;;;5.97;;
20861;SDS011;10591;52.532;13.348;2023-08-30T02:08:40;11.80;;;5.75;;
20861;SDS011;10591;52.532;13.348;2023-08-30T02:11:17;18.10;;;7.22;;
20861;SDS011;10591;52.532;13.348;2023-08-30T02:13:50;11.85;;;5.95;;
20861;SDS011;10591;52.532;13.348;2023-08-30T02:16:23;14.75;;;5.90;;
20861;SDS011;10591;52.532;13.348;2023-08-30T02:18:56;12.53;;;6.30;;
20861;SDS011;10591;52.532;13.348;2023-08-30T02:21:27;14.78;;;6.75;;
20861;SDS011;10591;52.532;13.348;2023-08-30T02:23:59;12.88;;;6.47;;
20861;SDS011;10591;52.532;13.348;2023-08-30T02:26:30;16.73;;;6.80;;
20861;SDS011;10591;52.532;13.348;2023-08-30T02:29:01;14.53;;;6.30;;
20861;SDS011;10591;52.532;13.348;2023-08-30T02:31:35;11.25;;;6.58;;
20861;SDS011;10591;52.532;13.348;2023-08-30T02:34:07;10.08;;;6.42;;
20861;SDS011;10591;52.532;13.348;2023-08-30T02:36:38;13.62;;;6.83;;
20861;SDS011;10591;52.532;13.348;2023-08-30T02:39:09;9.28;;;6.45;;
20861;SDS011;10591;52.532;13.348;2023-08-30T02:41:41;9.93;;;6.47;;
20861;SDS011;10591;52.532;13.348;2023-08-30T02:44:11;10.63;;;6.08;;
20861;SDS011;10591;52.532;13.348;2023-08-30T02:46:42;13.18;;;6.92;;
20861;SDS011;10591;52.532;13.348;2023-08-30T02:49:14;9.23;;;5.45;;
20861;SDS011;10591;52.532;13.348;2023-08-30T02:51:45;10.72;;;6.70;;
20861;SDS011;10591;52.532;13.348;2023-08-30T02:54:15;12.13;;;6.80;;
20861;SDS011;10591;52.532;13.348;2023-08-30T02:56:46;13.68;;;6.87;;
20861;SDS011;10591;52.532;13.348;2023-08-30T02:59:16;9.30;;;6.35;;
20861;SDS011;10591;52.532;13.348;2023-08-30T03:01:47;10.72;;;6.50;;
20861;SDS011;10591;52.532;13.348;2023-08-30T03:04:18;9.10;;;6.25;;
20861;SDS011;10591;52.532;13.348;2023-08-30T03:06:49;12.20;;;7.00;;
20861;SDS011;10591;52.532;13.348;2023-08-30T03:09:22;9.60;;;6.05;;
20861;SDS011;10591;52.532;13.348;2023-08-30T03:11:53;13.13;;;7.22;;
20861;SDS011;10591;52.532;13.348;2023-08-30T03:14:25;10.70;;;7.25;;
20861;SDS011;10591;52.532;13.348;2023-08-30T03:16:57;12.05;;;7.58;;
20861;SDS011;10591;52.532;13.348;2023-08-30T03:19:29;11.25;;;8.00;;
20861;SDS011;10591;52.532;13.348;2023-08-30T03:22:00;10.25;;;7.70;;
20861;SDS011;10591;52.532;13.348;2023-08-30T03:24:30;12.13;;;8.40;;
20861;SDS011;10591;52.532;13.348;2023-08-30T03:27:02;14.55;;;8.85;;
20861;SDS011;10591;52.532;13.348;2023-08-30T03:29:35;13.75;;;8.80;;
20861;SDS011;10591;52.532;13.348;2023-08-30T03:32:05;13.48;;;8.70;;
20861;SDS011;10591;52.532;13.348;2023-08-30T03:34:36;15.72;;;9.98;;
20861;SDS011;10591;52.532;13.348;2023-08-30T03:37:06;16.10;;;10.38;;
20861;SDS011;10591;52.532;13.348;2023-08-30T03:39:38;16.43;;;9.97;;
20861;SDS011;10591;52.532;13.348;2023-08-30T03:42:09;13.85;;;9.70;;
20861;SDS011;10591;52.532;13.348;2023-08-30T03:44:42;19.37;;;11.13;;
20861;SDS011;10591;52.532;13.348;2023-08-30T03:47:13;16.50;;;9.97;;
20861;SDS011;10591;52.532;13.348;2023-08-30T03:49:44;16.00;;;10.15;;
20861;SDS011;10591;52.532;13.348;2023-08-30T03:52:16;16.70;;;10.53;;
20861;SDS011;10591;52.532;13.348;2023-08-30T03:54:49;13.95;;;9.43;;
20861;SDS011;10591;52.532;13.348;2023-08-30T03:57:20;12.73;;;9.18;;
20861;SDS011;10591;52.532;13.348;2023-08-30T03:59:51;13.95;;;9.40;;
20861;SDS011;10591;52.532;13.348;2023-08-30T04:02:23;17.05;;;10.18;;
20861;SDS011;10591;52.532;13.348;2023-08-30T04:04:54;13.65;;;9.85;;
20861;SDS011;10591;52.532;13.348;2023-08-30T04:07:24;15.03;;;10.45;;
20861;SDS011;10591;52.532;13.348;2023-08-30T04:09:56;14.28;;;10.05;;
20861;SDS011;10591;52.532;13.348;2023-08-30T04:12:28;16.33;;;10.43;;
20861;SDS011;10591;52.532;13.348;2023-08-30T04:14:58;11.95;;;9.53;;
20861;SDS011;10591;52.532;13.348;2023-08-30T04:17:31;13.78;;;9.43;;
20861;SDS011;10591;52.532;13.348;2023-08-30T04:20:03;12.47;;;9.18;;
20861;SDS011;10591;52.532;13.348;2023-08-30T04:22:34;11.78;;;9.03;;
20861;SDS011;10591;52.532;13.348;2023-08-30T04:25:05;13.35;;;9.40;;
20861;SDS011;10591;52.532;13.348;2023-08-30T04:27:37;14.10;;;9.17;;
20861;SDS011;10591;52.532;13.348;2023-08-30T04:30:09;13.05;;;9.30;;
20861;SDS011;10591;52.532;13.348;2023-08-30T04:32:41;14.35;;;10.72;;
20861;SDS011;10591;52.532;13.348;2023-08-30T04:35:12;14.75;;;10.10;;
20861;SDS011;10591;52.532;13.348;2023-08-30T04:37:44;13.22;;;9.98;;
20861;SDS011;10591;52.532;13.348;2023-08-30T04:40:15;15.15;;;11.08;;
20861;SDS011;10591;52.532;13.348;2023-08-30T04:42:46;17.73;;;10.08;;
20861;SDS011;10591;52.532;13.348;2023-08-30T04:45:16;14.50;;;10.68;;
20861;SDS011;10591;52.532;13.348;2023-08-30T04:47:47;14.78;;;10.25;;
20861;SDS011;10591;52.532;13.348;2023-08-30T04:50:18;18.05;;;11.03;;
20861;SDS011;10591;52.532;13.348;2023-08-30T04:52:51;20.55;;;11.80;;
20861;SDS011;10591;52.532;13.348;2023-08-30T04:55:23;18.20;;;10.87;;
20861;SDS011;10591;52.532;13.348;2023-08-30T04:57:54;16.95;;;11.15;;
20861;SDS011;10591;52.532;13.348;2023-08-30T05:00:27;16.95;;;10.50;;
20861;SDS011;10591;52.532;13.348;2023-08-30T05:03:01;13.03;;;9.85;;
20861;SDS011;10591;52.532;13.348;2023-08-30T05:05:33;14.20;;;9.85;;
20861;SDS011;10591;52.532;13.348;2023-08-30T05:08:03;13.32;;;10.03;;
20861;SDS011;10591;52.532;13.348;2023-08-30T05:10:36;15.38;;;9.78;;
20861;SDS011;10591;52.532;13.348;2023-08-30T05:13:11;12.13;;;8.53;;
20861;SDS011;10591;52.532;13.348;2023-08-30T05:15:43;17.30;;;10.60;;
20861;SDS011;10591;52.532;13.348;2023-08-30T05:18:18;19.30;;;11.08;;
20861;SDS011;10591;52.532;13.348;2023-08-30T05:20:50;16.40;;;10.08;;
20861;SDS011;10591;52.532;13.348;2023-08-30T05:23:20;14.28;;;9.83;;
20861;SDS011;10591;52.532;13.348;2023-08-30T05:25:51;14.03;;;9.83;;
20861;SDS011;10591;52.532;13.348;2023-08-30T05:28:22;10.10;;;7.50;;
20861;SDS011;10591;52.532;13.348;2023-08-30T05:30:53;11.68;;;7.67;;
20861;SDS011;10591;52.532;13.348;2023-08-30T05:33:23;13.78;;;7.75;;
20861;SDS011;10591;52.532;13.348;2023-08-30T05:35:57;10.78;;;6.33;;
20861;SDS011;10591;52.532;13.348;2023-08-30T05:38:29;11.80;;;6.92;;
20861;SDS011;10591;52.532;13.348;2023-08-30T05:40:59;13.13;;;8.08;;
20861;SDS011;10591;52.532;13.348;2023-08-30T05:43:32;12.13;;;7.50;;
20861;SDS011;10591;52.532;13.348;2023-08-30T05:46:05;11.80;;;7.10;;
20861;SDS011;10591;52.532;13.348;2023-08-30T05:48:38;18.42;;;8.85;;
20861;SDS011;10591;52.532;13.348;2023-08-30T05:51:09;16.32;;;9.05;;
20861;SDS011;10591;52.532;13.348;2023-08-30T05:53:39;15.28;;;8.80;;
20861;SDS011;10591;52.532;13.348;2023-08-30T05:56:10;20.23;;;10.28;;
20861;SDS011;10591;52.532;13.348;2023-08-30T05:58:40;19.92;;;10.15;;
20861;SDS011;10591;52.532;13.348;2023-08-30T06:01:11;19.65;;;11.00;;
20861;SDS011;10591;52.532;13.348;2023-08-30T06:03:42;26.95;;;12.55;;
20861;SDS011;10591;52.532;13.348;2023-08-30T06:06:15;27.35;;;13.13;;
20861;SDS011;10591;52.532;13.348;2023-08-30T06:08:46;26.97;;;12.28;;
20861;SDS011;10591;52.532;13.348;2023-08-30T06:11:17;30.20;;;12.78;;
20861;SDS011;10591;52.532;13.348;2023-08-30T06:13:47;27.93;;;13.18;;
20861;SDS011;10591;52.532;13.348;2023-08-30T06:16:18;20.55;;;10.15;;
20861;SDS011;10591;52.532;13.348;2023-08-30T06:18:50;17.65;;;9.80;;
20861;SDS011;10591;52.532;13.348;2023-08-30T06:21:23;17.15;;;9.30;;
20861;SDS011;10591;52.532;13.348;2023-08-30T06:23:56;14.68;;;8.48;;
20861;SDS011;10591;52.532;13.348;2023-08-30T06:26:26;15.45;;;9.15;;
20861;SDS011;10591;52.532;13.348;2023-08-30T06:28:58;13.18;;;8.88;;
20861;SDS011;10591;52.532;13.348;2023-08-30T06:31:31;15.53;;;9.68;;
20861;SDS011;10591;52.532;13.348;2023-08-30T06:34:02;15.63;;;9.38;;
20861;SDS011;10591;52.532;13.348;2023-08-30T06:36:33;12.55;;;8.03;;
20861;SDS011;10591;52.532;13.348;2023-08-30T06:39:04;12.63;;;8.03;;
20861;SDS011;10591;52.532;13.348;2023-08-30T06:41:37;12.05;;;7.40;;
20861;SDS011;10591;52.532;13.348;2023-08-30T06:44:08;8.90;;;6.78;;
20861;SDS011;10591;52.532;13.348;2023-08-30T06:46:40;9.28;;;6.65;;
20861;SDS011;10591;52.532;13.348;2023-08-30T06:49:10;7.40;;;5.75;;
20861;SDS011;10591;52.532;13.348;2023-08-30T06:51:41;11.93;;;7.03;;
20861;SDS011;10591;52.532;13.348;2023-08-30T06:54:11;9.88;;;6.95;;
20861;SDS011;10591;52.532;13.348;2023-08-30T06:56:47;10.30;;;7.05;;
20861;SDS011;10591;52.532;13.348;2023-08-30T06:59:28;14.68;;;7.78;;
20861;SDS011;10591;52.532;13.348;2023-08-30T07:02:00;8.03;;;5.55;;
20861;SDS011;10591;52.532;13.348;2023-08-30T07:04:33;11.08;;;6.90;;
20861;SDS011;10591;52.532;13.348;2023-08-30T07:07:04;9.23;;;5.55;;
20861;SDS011;10591;52.532;13.348;2023-08-30T07:09:35;9.95;;;5.55;;
20861;SDS011;10591;52.532;13.348;2023-08-30T07:12:07;7.92;;;5.25;;
20861;SDS011;10591;52.532;13.348;2023-08-30T07:14:39;9.10;;;5.95;;
20861;SDS011;10591;52.532;13.348;2023-08-30T07:17:12;7.87;;;5.40;;
20861;SDS011;10591;52.532;13.348;2023-08-30T07:19:42;10.05;;;6.03;;
20861;SDS011;10591;52.532;13.348;2023-08-30T07:22:13;9.93;;;6.33;;
20861;SDS011;10591;52.532;13.348;2023-08-30T07:24:46;9.10;;;5.78;;
20861;SDS011;10591;52.532;13.348;2023-08-30T07:27:17;7.00;;;5.42;;
20861;SDS011;10591;52.532;13.348;2023-08-30T07:29:48;8.05;;;5.75;;
20861;SDS011;10591;52.532;13.348;2023-08-30T07:32:19;9.50;;;6.35;;
20861;SDS011;10591;52.532;13.348;2023-08-30T07:34:52;10.10;;;6.03;;
20861;SDS011;10591;52.532;13.348;2023-08-30T07:37:24;9.45;;;6.03;;
20861;SDS011;10591;52.532;13.348;2023-08-30T07:39:58;8.45;;;5.12;;
20861;SDS011;10591;52.532;13.348;2023-08-30T07:42:31;9.38;;;5.60;;
20861;SDS011;10591;52.532;13.348;2023-08-30T07:45:04;8.20;;;5.40;;
20861;SDS011;10591;52.532;13.348;2023-08-30T07:47:36;9.63;;;5.83;;
20861;SDS011;10591;52.532;13.348;2023-08-30T07:50:06;7.15;;;5.67;;
20861;SDS011;10591;52.532;13.348;2023-08-30T07:52:39;12.88;;;6.78;;
20861;SDS011;10591;52.532;13.348;2023-08-30T07:55:12;8.48;;;5.72;;
20861;SDS011;10591;52.532;13.348;2023-08-30T07:57:43;9.93;;;5.72;;
20861;SDS011;10591;52.532;13.348;2023-08-30T08:00:15;8.98;;;6.33;;
20861;SDS011;10591;52.532;13.348;2023-08-30T08:02:45;11.45;;;6.25;;
20861;SDS011;10591;52.532;13.348;2023-08-30T08:05:16;7.37;;;5.20;;
20861;SDS011;10591;52.532;13.348;2023-08-30T08:07:49;10.98;;;6.33;;
20861;SDS011;10591;52.532;13.348;2023-08-30T08:10:22;12.70;;;6.87;;
20861;SDS011;10591;52.532;13.348;2023-08-30T08:12:54;9.35;;;5.45;;
20861;SDS011;10591;52.532;13.348;2023-08-30T08:15:26;7.08;;;5.17;;
20861;SDS011;10591;52.532;13.348;2023-08-30T08:18:02;7.05;;;5.42;;
20861;SDS011;10591;52.532;13.348;2023-08-30T08:20:33;6.97;;;4.90;;
20861;SDS011;10591;52.532;13.348;2023-08-30T08:23:05;6.87;;;5.47;;
20861;SDS011;10591;52.532;13.348;2023-08-30T08:25:36;5.62;;;4.40;;
20861;SDS011;10591;52.532;13.348;2023-08-30T08:28:07;8.68;;;5.85;;
20861;SDS011;10591;52.532;13.348;2023-08-30T08:30:38;12.63;;;6.37;;
20861;SDS011;10591;52.532;13.348;2023-08-30T08:33:08;18.95;;;8.23;;
20861;SDS011;10591;52.532;13.348;2023-08-30T08:35:40;11.50;;;6.70;;
20861;SDS011;10591;52.532;13.348;2023-08-30T08:38:11;11.05;;;6.42;;
20861;SDS011;10591;52.532;13.348;2023-08-30T08:40:41;10.15;;;6.50;;
20861;SDS011;10591;52.532;13.348;2023-08-30T08:43:14;10.98;;;6.80;;
20861;SDS011;10591;52.532;13.348;2023-08-30T08:45:47;9.95;;;5.40;;
20861;SDS011;10591;52.532;13.348;2023-08-30T08:48:19;10.80;;;5.15;;
20861;SDS011;10591;52.532;13.348;2023-08-30T08:50:50;9.00;;;5.42;;
20861;SDS011;10591;52.532;13.348;2023-08-30T08:53:21;9.38;;;6.15;;
20861;SDS011;10591;52.532;13.348;2023-08-30T08:55:52;10.80;;;5.50;;
20861;SDS011;10591;52.532;13.348;2023-08-30T08:58:24;11.35;;;6.28;;
20861;SDS011;10591;52.532;13.348;2023-08-30T09:00:56;9.10;;;4.55;;
20861;SDS011;10591;52.532;13.348;2023-08-30T09:03:29;11.33;;;5.53;;
20861;SDS011;10591;52.532;13.348;2023-08-30T09:06:00;8.50;;;4.65;;
20861;SDS011;10591;52.532;13.348;2023-08-30T09:08:32;8.75;;;4.50;;
20861;SDS011;10591;52.532;13.348;2023-08-30T09:11:04;6.55;;;3.98;;
20861;SDS011;10591;52.532;13.348;2023-08-30T09:13:36;7.55;;;4.08;;
20861;SDS011;10591;52.532;13.348;2023-08-30T09:16:11;5.85;;;3.50;;
20861;SDS011;10591;52.532;13.348;2023-08-30T09:18:42;6.85;;;3.87;;
20861;SDS011;10591;52.532;13.348;2023-08-30T09:21:15;13.98;;;5.00;;
20861;SDS011;10591;52.532;13.348;2023-08-30T09:23:45;11.57;;;5.05;;
20861;SDS011;10591;52.532;13.348;2023-08-30T09:26:20;8.55;;;4.47;;
20861;SDS011;10591;52.532;13.348;2023-08-30T09:28:51;8.50;;;4.78;;
20861;SDS011;10591;52.532;13.348;2023-08-30T09:31:22;11.65;;;5.70;;
20861;SDS011;10591;52.532;13.348;2023-08-30T09:33:57;14.87;;;6.42;;
20861;SDS011;10591;52.532;13.348;2023-08-30T09:36:33;9.93;;;5.17;;
20861;SDS011;10591;52.532;13.348;2023-08-30T09:39:05;13.03;;;4.85;;
20861;SDS011;10591;52.532;13.348;2023-08-30T09:41:41;8.80;;;4.75;;
20861;SDS011;10591;52.532;13.348;2023-08-30T09:44:18;10.55;;;5.05;;
20861;SDS011;10591;52.532;13.348;2023-08-30T09:46:51;8.88;;;4.62;;
20861;SDS011;10591;52.532;13.348;2023-08-30T09:49:24;9.60;;;4.72;;
20861;SDS011;10591;52.532;13.348;2023-08-30T09:51:56;9.55;;;4.60;;
20861;SDS011;10591;52.532;13.348;2023-08-30T09:54:29;9.10;;;4.95;;
20861;SDS011;10591;52.532;13.348;2023-08-30T09:57:02;15.80;;;6.83;;
20861;SDS011;10591;52.532;13.348;2023-08-30T09:59:36;10.75;;;4.72;;
20861;SDS011;10591;52.532;13.348;2023-08-30T10:02:08;11.57;;;4.95;;
20861;SDS011;10591;52.532;13.348;2023-08-30T10:04:40;13.85;;;5.78;;
20861;SDS011;10591;52.532;13.348;2023-08-30T10:07:12;8.95;;;4.25;;
20861;SDS011;10591;52.532;13.348;2023-08-30T10:09:45;7.03;;;3.50;;
20861;SDS011;10591;52.532;13.348;2023-08-30T10:12:19;10.15;;;4.15;;
20861;SDS011;10591;52.532;13.348;2023-08-30T10:14:51;11.03;;;5.17;;
20861;SDS011;10591;52.532;13.348;2023-08-30T10:17:22;14.13;;;5.67;;
20861;SDS011;10591;52.532;13.348;2023-08-30T10:19:56;10.95;;;4.50;;
20861;SDS011;10591;52.532;13.348;2023-08-30T10:22:30;9.25;;;4.60;;
20861;SDS011;10591;52.532;13.348;2023-08-30T10:25:02;11.18;;;4.97;;
20861;SDS011;10591;52.532;13.348;2023-08-30T10:27:41;9.33;;;4.85;;
20861;SDS011;10591;52.532;13.348;2023-08-30T10:30:14;9.10;;;4.30;;
20861;SDS011;10591;52.532;13.348;2023-08-30T10:32:47;7.65;;;4.50;;
20861;SDS011;10591;52.532;13.348;2023-08-30T10:35:18;12.63;;;5.75;;
20861;SDS011;10591;52.532;13.348;2023-08-30T10:37:55;9.90;;;4.78;;
20861;SDS011;10591;52.532;13.348;2023-08-30T10:40:26;13.60;;;7.33;;
20861;SDS011;10591;52.532;13.348;2023-08-30T10:43:00;11.63;;;6.08;;
20861;SDS011;10591;52.532;13.348;2023-08-30T10:45:32;10.45;;;6.00;;
20861;SDS011;10591;52.532;13.348;2023-08-30T10:48:03;8.45;;;5.53;;
20861;SDS011;10591;52.532;13.348;2023-08-30T10:50:34;10.70;;;5.62;;
20861;SDS011;10591;52.532;13.348;2023-08-30T10:53:12;8.33;;;5.67;;
20861;SDS011;10591;52.532;13.348;2023-08-30T10:55:40;12.25;;;6.30;;
20861;SDS011;10591;52.532;13.348;2023-08-30T10:58:13;9.30;;;5.00;;
20861;SDS011;10591;52.532;13.348;2023-08-30T11:00:45;9.15;;;5.50;;
20861;SDS011;10591;52.532;13.348;2023-08-30T11:03:17;8.63;;;5.12;;
20861;SDS011;10591;52.532;13.348;2023-08-30T11:05:48;10.48;;;5.40;;
20861;SDS011;10591;52.532;13.348;2023-08-30T11:08:19;8.70;;;4.70;;
20861;SDS011;10591;52.532;13.348;2023-08-30T11:11:03;11.15;;;4.78;;
20861;SDS011;10591;52.532;13.348;2023-08-30T11:13:37;10.10;;;4.65;;
20861;SDS011;10591;52.532;13.348;2023-08-30T11:16:10;7.40;;;4.37;;
20861;SDS011;10591;52.532;13.348;2023-08-30T11:18:42;9.03;;;4.08;;
20861;SDS011;10591;52.532;13.348;2023-08-30T11:21:12;7.35;;;4.28;;
20861;SDS011;10591;52.532;13.348;2023-08-30T11:23:44;8.98;;;4.08;;
20861;SDS011;10591;52.532;13.348;2023-08-30T11:26:15;6.58;;;3.85;;
20861;SDS011;10591;52.532;13.348;2023-08-30T11:28:46;8.05;;;4.65;;
20861;SDS011;10591;52.532;13.348;2023-08-30T11:31:27;6.08;;;3.67;;
20861;SDS011;10591;52.532;13.348;2023-08-30T11:33:57;7.47;;;4.22;;
20861;SDS011;10591;52.532;13.348;2023-08-30T11:36:30;7.08;;;3.98;;
20861;SDS011;10591;52.532;13.348;2023-08-30T11:39:04;7.80;;;3.85;;
20861;SDS011;10591;52.532;13.348;2023-08-30T11:41:36;11.03;;;4.50;;
20861;SDS011;10591;52.532;13.348;2023-08-30T11:44:09;8.13;;;3.87;;
20861;SDS011;10591;52.532;13.348;2023-08-30T11:46:41;10.35;;;4.15;;
20861;SDS011;10591;52.532;13.348;2023-08-30T11:49:13;11.33;;;5.42;;
20861;SDS011;10591;52.532;13.348;2023-08-30T11:51:45;7.15;;;3.85;;
20861;SDS011;10591;52.532;13.348;2023-08-30T11:54:19;7.90;;;4.03;;
20861;SDS011;10591;52.532;13.348;2023-08-30T11:56:50;5.47;;;3.58;;
20861;SDS011;10591;52.532;13.348;2023-08-30T11:59:21;7.50;;;4.00;;
20861;SDS011;10591;52.532;13.348;2023-08-30T12:01:54;10.48;;;5.00;;
20861;SDS011;10591;52.532;13.348;2023-08-30T12:04:27;6.50;;;4.10;;
20861;SDS011;10591;52.532;13.348;2023-08-30T12:06:58;5.83;;;3.70;;
20861;SDS011;10591;52.532;13.348;2023-08-30T12:09:32;7.12;;;4.03;;
20861;SDS011;10591;52.532;13.348;2023-08-30T12:12:08;8.53;;;4.67;;
20861;SDS011;10591;52.532;13.348;2023-08-30T12:14:39;11.83;;;5.35;;
20861;SDS011;10591;52.532;13.348;2023-08-30T12:17:12;11.40;;;4.90;;
20861;SDS011;10591;52.532;13.348;2023-08-30T12:19:46;6.42;;;4.47;;
20861;SDS011;10591;52.532;13.348;2023-08-30T12:22:18;11.65;;;5.05;;
20861;SDS011;10591;52.532;13.348;2023-08-30T12:24:49;10.05;;;4.97;;
20861;SDS011;10591;52.532;13.348;2023-08-30T12:27:22;6.42;;;4.15;;
20861;SDS011;10591;52.532;13.348;2023-08-30T12:29:52;8.15;;;4.60;;
20861;SDS011;10591;52.532;13.348;2023-08-30T12:32:23;9.93;;;4.90;;
20861;SDS011;10591;52.532;13.348;2023-08-30T12:34:53;12.07;;;4.65;;
20861;SDS011;10591;52.532;13.348;2023-08-30T12:37:24;9.93;;;5.00;;
20861;SDS011;10591;52.532;13.348;2023-08-30T12:39:55;6.65;;;3.92;;
20861;SDS011;10591;52.532;13.348;2023-08-30T12:42:26;8.08;;;4.60;;
20861;SDS011;10591;52.532;13.348;2023-08-30T12:44:57;6.58;;;4.53;;
20861;SDS011;10591;52.532;13.348;2023-08-30T12:47:28;9.15;;;4.97;;
20861;SDS011;10591;52.532;13.348;2023-08-30T12:49:59;7.40;;;4.60;;
20861;SDS011;10591;52.532;13.348;2023-08-30T12:52:30;8.93;;;5.33;;
20861;SDS011;10591;52.532;13.348;2023-08-30T12:55:01;7.60;;;4.47;;
20861;SDS011;10591;52.532;13.348;2023-08-30T12:57:33;9.10;;;4.90;;
20861;SDS011;10591;52.532;13.348;2023-08-30T13:00:04;10.10;;;5.08;;
20861;SDS011;10591;52.532;13.348;2023-08-30T13:02:37;8.25;;;5.00;;
20861;SDS011;10591;52.532;13.348;2023-08-30T13:05:10;7.05;;;4.80;;
20861;SDS011;10591;52.532;13.348;2023-08-30T13:07:40;7.12;;;4.83;;
20861;SDS011;10591;52.532;13.348;2023-08-30T13:10:11;8.45;;;4.83;;
20861;SDS011;10591;52.532;13.348;2023-08-30T13:12:42;8.65;;;4.92;;
20861;SDS011;10591;52.532;13.348;2023-08-30T13:15:12;9.75;;;4.72;;
20861;SDS011;10591;52.532;13.348;2023-08-30T13:17:43;8.93;;;4.95;;
20861;SDS011;10591;52.532;13.348;2023-08-30T13:20:14;7.55;;;4.40;;
20861;SDS011;10591;52.532;13.348;2023-08-30T13:22:46;8.45;;;4.83;;
20861;SDS011;10591;52.532;13.348;2023-08-30T13:25:17;8.33;;;4.33;;
20861;SDS011;10591;52.532;13.348;2023-08-30T13:27:47;7.80;;;5.22;;
20861;SDS011;10591;52.532;13.348;2023-08-30T13:30:18;6.17;;;4.78;;
20861;SDS011;10591;52.532;13.348;2023-08-30T13:32:50;8.85;;;5.05;;
20861;SDS011;10591;52.532;13.348;2023-08-30T13:35:25;7.05;;;4.67;;
20861;SDS011;10591;52.532;13.348;2023-08-30T13:37:55;6.00;;;4.40;;
20861;SDS011;10591;52.532;13.348;2023-08-30T13:40:26;5.85;;;4.37;;
20861;SDS011;10591;52.532;13.348;2023-08-30T13:42:57;7.85;;;5.08;;
20861;SDS011;10591;52.532;13.348;2023-08-30T13:45:27;8.05;;;5.25;;
20861;SDS011;10591;52.532;13.348;2023-08-30T13:47:59;9.53;;;5.87;;
20861;SDS011;10591;52.532;13.348;2023-08-30T13:50:30;8.55;;;4.47;;
20861;SDS011;10591;52.532;13.348;2023-08-30T13:53:01;7.67;;;4.80;;
20861;SDS011;10591;52.532;13.348;2023-08-30T13:55:32;5.28;;;4.22;;
20861;SDS011;10591;52.532;13.348;2023-08-30T13:58:02;7.53;;;5.10;;
20861;SDS011;10591;52.532;13.348;2023-08-30T14:00:33;8.00;;;4.42;;
20861;SDS011;10591;52.532;13.348;2023-08-30T14:03:03;7.40;;;4.78;;
20861;SDS011;10591;52.532;13.348;2023-08-30T14:05:34;9.80;;;5.58;;
20861;SDS011;10591;52.532;13.348;2023-08-30T14:08:07;6.35;;;4.25;;
20861;SDS011;10591;52.532;13.348;2023-08-30T14:10:37;9.83;;;5.40;;
20861;SDS011;10591;52.532;13.348;2023-08-30T14:13:09;9.10;;;4.83;;
20861;SDS011;10591;52.532;13.348;2023-08-30T14:15:40;10.98;;;5.60;;
20861;SDS011;10591;52.532;13.348;2023-08-30T14:18:11;9.45;;;4.72;;
20861;SDS011;10591;52.532;13.348;2023-08-30T14:20:43;7.15;;;4.40;;
20861;SDS011;10591;52.532;13.348;2023-08-30T14:23:14;8.95;;;4.60;;
20861;SDS011;10591;52.532;13.348;2023-08-30T14:25:45;13.48;;;9.60;;
20861;SDS011;10591;52.532;13.348;2023-08-30T14:28:18;8.18;;;5.05;;
20861;SDS011;10591;52.532;13.348;2023-08-30T14:30:51;7.75;;;4.35;;
20861;SDS011;10591;52.532;13.348;2023-08-30T14:33:22;9.15;;;4.08;;
20861;SDS011;10591;52.532;13.348;2023-08-30T14:35:52;6.67;;;3.80;;
20861;SDS011;10591;52.532;13.348;2023-08-30T14:38:23;7.62;;;4.08;;
20861;SDS011;10591;52.532;13.348;2023-08-30T14:41:00;8.20;;;4.28;;
20861;SDS011;10591;52.532;13.348;2023-08-30T14:43:32;7.78;;;4.33;;
20861;SDS011;10591;52.532;13.348;2023-08-30T14:46:02;6.28;;;3.95;;
20861;SDS011;10591;52.532;13.348;2023-08-30T14:48:37;7.92;;;4.05;;
20861;SDS011;10591;52.532;13.348;2023-08-30T14:51:09;6.85;;;4.20;;
20861;SDS011;10591;52.532;13.348;2023-08-30T14:53:40;6.55;;;3.75;;
20861;SDS011;10591;52.532;13.348;2023-08-30T14:56:11;6.05;;;3.40;;
20861;SDS011;10591;52.532;13.348;2023-08-30T14:58:42;6.22;;;3.33;;
20861;SDS011;10591;52.532;13.348;2023-08-30T15:01:14;10.38;;;4.85;;
20861;SDS011;10591;52.532;13.348;2023-08-30T15:03:46;7.83;;;4.60;;